Time;durP1;ratioP1;P1;durP2;ratioP2;P2;SDS_P1;SDS_P2;PMS_P1;PMS_P2;Temp;Humidity;BMP_temperature;BMP_pressure;BME280_temperature;BME280_humidity;BME280_pressure;Samples;Min_cycle;Max_cycle;Signal;HPM_P1;HPM_P2
2022/06/07 00:01:01;;;;;;;;;;;;;;;;;;5130226;27;19919;-62
2022/06/07 00:03:27;;;;;;;;;;;;;;;;;;5124492;28;19963;-61
2022/06/07 00:05:53;;;;;;;;;;;;;;;;;;5124320;28;19949;-61
2022/06/07 00:08:19;;;;;;;;;;;;;;;;;;5124974;27;19927;-61
2022/06/07 00:10:45;;;;;;;;;;;;;;;;;;5135865;27;19963;-61
2022/06/07 00:13:11;;;;;;;;;;;;;;;;;;5125072;27;19979;-61
2022/06/07 00:15:37;;;;;;;;;;;;;;;;;;5158683;27;19927;-62
2022/06/07 00:18:03;;;;;;;;;;;;;;;;;;5125604;28;19930;-61
2022/06/07 00:20:29;;;;;;;;;;;;;;;;;;5133792;27;19923;-61
2022/06/07 00:22:55;;;;;;;;;;;;;;;;;;5130297;27;19924;-61
2022/06/07 00:25:21;;;;;;;;;;;;;;;;;;5125717;27;19979;-61
2022/06/07 00:27:47;;;;;;;;;;;;;;;;;;5125603;28;19924;-61
2022/06/07 00:30:13;;;;;;;;;;;;;;;;;;5124978;28;19935;-61
2022/06/07 00:32:39;;;;;;;;;;;;;;;;;;5131372;28;19980;-61
2022/06/07 00:35:05;;;;;;;;;;;;;;;;;;5125365;28;19924;-62
2022/06/07 00:37:31;;;;;;;;;;;;;;;;;;5125476;28;19920;-61
2022/06/07 00:39:57;;;;;;;;;;;;;;;;;;5126511;28;20036;-61
2022/06/07 00:42:23;;;;;;;;;;;;;;;;;;5125613;28;19924;-61
2022/06/07 00:44:49;;;;;;;;;;;;;;;;;;5125599;28;19984;-61
2022/06/07 00:47:15;;;;;;;;;;;;;;;;;;5125204;28;19972;-61
2022/06/07 00:49:41;;;;;;;;;;;;;;;;;;5127829;28;19924;-61
2022/06/07 00:52:07;;;;;;;;;;;;;;;;;;5125371;28;19924;-61
2022/06/07 00:54:33;;;;;;;;;;;;;;;;;;5125120;28;19994;-61
2022/06/07 00:56:59;;;;;;;;;;;;;;;;;;5124316;28;19923;-61
2022/06/07 00:59:25;;;;;;;;;;;;;;;;;;5131446;27;19931;-61
2022/06/07 01:01:51;;;;;;;;;;;;;;;;;;5129268;28;20014;-61
2022/06/07 01:04:16;;;;;;;;;;;;;;;;;;5129130;28;19930;-62
2022/06/07 01:12:12;;;;;;;;;;;;;;;;;;5129182;28;19930;-62
2022/06/07 01:14:38;;;;;;;;;;;;;;;;;;5128843;28;19967;-61
2022/06/07 01:17:04;;;;;;;;;;;;;;;;;;5128941;28;19946;-62
2022/06/07 01:19:30;;;;;;;;;;;;;;;;;;5139475;27;20010;-61
2022/06/07 01:21:56;;;;;;;;;;;;;;;;;;5127763;28;20279;-62
2022/06/07 01:24:21;;;;;;;;;;;;;;;;;;5128757;28;19923;-62
2022/06/07 01:26:47;;;;;;;;;;;;;;;;;;5129012;28;19928;-62
2022/06/07 01:29:14;;;;;;;;;;;;;;;;;;5132601;27;19923;-62
2022/06/07 01:31:40;;;;;;;;;;;;;;;;;;5128748;28;19924;-62
2022/06/07 01:34:06;;;;;;;;;;;;;;;;;;5127215;28;19949;-62
2022/06/07 01:36:32;;;;;;;;;;;;;;;;;;5128635;28;19935;-62
2022/06/07 01:41:55;;;;;;;;;;;;;;;;;;5134539;27;19924;-62
2022/06/07 01:44:21;;;;;;;;;;;;;;;;;;5128420;28;20379;-61
2022/06/07 01:46:47;;;;;;;;;;;;;;;;;;5128322;28;19926;-62
2022/06/07 01:49:13;;;;;;;;;;;;;;;;;;5135551;27;19931;-61
2022/06/07 01:51:39;;;;;;;;;;;;;;;;;;5128382;28;19924;-61
2022/06/07 01:54:05;;;;;;;;;;;;;;;;;;5128230;28;19978;-62
2022/06/07 01:56:31;;;;;;;;;;;;;;;;;;5126896;28;19995;-61
2022/06/07 01:58:57;;;;;;;;;;;;;;;;;;5129451;27;19923;-62
2022/06/07 02:01:23;;;;;;;;;;;;;;;;;;5129300;27;19946;-62
2022/06/07 02:03:49;;;;;;;;;;;;;;;;;;5128152;28;20058;-62
2022/06/07 02:06:15;;;;;;;;;;;;;;;;;;5127930;28;20040;-62
2022/06/07 02:08:41;;;;;;;;;;;;;;;;;;5131139;28;19931;-62
2022/06/07 02:11:07;;;;;;;;;;;;;;;;;;5134241;27;19924;-62
2022/06/07 02:13:33;;;;;;;;;;;;;;;;;;5127959;28;19924;-62
2022/06/07 02:15:58;;;;;;;;;;;;;;;;;;5126614;28;20053;-62
2022/06/07 02:18:24;;;;;;;;;;;;;;;;;;5128348;27;20390;-62
2022/06/07 02:20:50;;;;;;;;;;;;;;;;;;5138426;27;19963;-62
2022/06/07 02:23:16;;;;;;;;;;;;;;;;;;5126555;28;19931;-62
2022/06/07 02:25:42;;;;;;;;;;;;;;;;;;5127888;28;19987;-62
2022/06/07 02:28:08;;;;;;;;;;;;;;;;;;5127319;28;19950;-62
2022/06/07 02:30:34;;;;;;;;;;;;;;;;;;5126045;28;19924;-62
2022/06/07 02:33:00;;;;;;;;;;;;;;;;;;5127514;28;20181;-61
2022/06/07 02:35:26;;;;;;;;;;;;;;;;;;5127531;28;21313;-62
2022/06/07 02:37:52;;;;;;;;;;;;;;;;;;5127534;28;19924;-61
2022/06/07 02:40:18;;;;;;;;;;;;;;;;;;5129284;27;19932;-61
2022/06/07 02:42:44;;;;;;;;;;;;;;;;;;5127590;28;19924;-61
2022/06/07 02:45:11;;;;;;;;;;;;;;;;;;5125950;28;19927;-62
2022/06/07 02:47:37;;;;;;;;;;;;;;;;;;5125851;28;19923;-62
2022/06/07 02:50:02;;;;;;;;;;;;;;;;;;5130621;27;19946;-62
2022/06/07 02:52:28;;;;;;;;;;;;;;;;;;5127006;28;19928;-61
2022/06/07 02:54:54;;;;;;;;;;;;;;;;;;5127125;28;19924;-62
2022/06/07 02:57:20;;;;;;;;;;;;;;;;;;5127003;28;19923;-62
2022/06/07 02:59:46;;;;;;;;;;;;;;;;;;5129680;27;19924;-62
2022/06/07 03:02:12;;;;;;;;;;;;;;;;;;5126884;28;20014;-62
2022/06/07 03:04:38;;;;;;;;;;;;;;;;;;5125489;28;20151;-61
2022/06/07 03:07:04;;;;;;;;;;;;;;;;;;5126972;28;19968;-62
2022/06/07 03:09:30;;;;;;;;;;;;;;;;;;5131991;27;20004;-62
2022/06/07 03:11:56;;;;;;;;;;;;;;;;;;5126736;28;19928;-61
2022/06/07 03:14:22;;;;;;;;;;;;;;;;;;5126971;28;19930;-61
2022/06/07 03:16:48;;;;;;;;;;;;;;;;;;5125306;28;19932;-62
2022/06/07 03:19:14;;;;;;;;;;;;;;;;;;5124695;28;19920;-61
2022/06/07 03:21:40;;;;;;;;;;;;;;;;;;5126183;28;20051;-62
2022/06/07 03:24:06;;;;;;;;;;;;;;;;;;5126680;28;20127;-62
2022/06/07 03:26:32;;;;;;;;;;;;;;;;;;5126534;28;19931;-62
2022/06/07 03:28:58;;;;;;;;;;;;;;;;;;5130276;27;19934;-62
2022/06/07 03:31:24;;;;;;;;;;;;;;;;;;5134849;27;19949;-62
2022/06/07 03:33:50;;;;;;;;;;;;;;;;;;5126195;28;19924;-61
2022/06/07 03:36:16;;;;;;;;;;;;;;;;;;5125134;28;20006;-62
2022/06/07 03:38:42;;;;;;;;;;;;;;;;;;5126722;27;19932;-62
2022/06/07 03:41:08;;;;;;;;;;;;;;;;;;5138926;27;19934;-61
2022/06/07 03:43:34;;;;;;;;;;;;;;;;;;5126328;28;19967;-62
2022/06/07 03:46:00;;;;;;;;;;;;;;;;;;5125928;28;19970;-62
2022/06/07 03:48:25;;;;;;;;;;;12.50;99.90;;;;;;5126212;28;19955;-62
2022/06/07 03:50:52;;;;;;;;;;;12.30;99.90;;;;;;5158285;27;19930;-62
2022/06/07 03:53:18;;;;;;;;;;;12.10;99.90;;;;;;5125998;28;19928;-62
2022/06/07 03:55:47;;;;;;;;;;;12.10;99.90;;;;;;5125879;28;19928;-62
2022/06/07 03:58:13;;;;;;;;;;;12.30;99.90;;;;;;5126054;28;19924;-62
2022/06/07 04:00:39;;;;;;;;;;;11.90;99.90;;;;;;5126921;27;19931;-62
2022/06/07 04:03:04;;;;;;;;;;;11.70;99.90;;;;;;5125835;28;19928;-62
2022/06/07 04:05:30;;;;;;;;;;;11.70;99.90;;;;;;5125906;28;19967;-62
2022/06/07 04:08:11;;;;;;;;;;;11.60;99.90;;;;;;5126014;28;20001;-62
2022/06/07 04:10:37;;;;;;;;;;;11.60;99.90;;;;;;5127096;27;19987;-61
2022/06/07 04:13:02;;;;;;;;;;;11.50;99.90;;;;;;5127314;27;19975;-61
2022/06/07 04:15:28;;;;;;;;;;;11.50;99.90;;;;;;5125823;28;19928;-62
2022/06/07 04:17:54;;;;;;;;;;;11.50;99.90;;;;;;5125793;28;19928;-62
2022/06/07 04:20:20;;;;;;;;;;;11.50;99.90;;;;;;5130567;28;19923;-62
2022/06/07 04:22:46;;;;;;;;;;;11.40;99.90;;;;;;5125459;27;19931;-62
2022/06/07 04:25:11;;;;;;;;;;;11.40;99.90;;;;;;5125760;28;19924;-62
2022/06/07 04:27:37;;;;;;;;;;;11.40;99.90;;;;;;5124639;28;20338;-62
2022/06/07 04:30:05;;;;;;;;;;;11.50;99.90;;;;;;5143948;27;19920;-62
2022/06/07 04:32:31;;;;;;;;;;;11.40;99.90;;;;;;5126831;28;19930;-62
2022/06/07 04:34:57;;;;;;;;;;;11.40;99.90;;;;;;5129922;28;19930;-63
2022/06/07 04:37:23;;;;;;;;;;;11.40;99.90;;;;;;5129750;28;19924;-62
2022/06/07 04:39:49;;;;;;;;;;;11.40;99.90;;;;;;5138540;27;19924;-62
2022/06/07 04:42:15;;;;;;;;;;;11.40;99.90;;;;;;5133054;27;19931;-62
2022/06/07 04:44:40;;;;;;;;;;;11.40;99.90;;;;;;5159413;27;19927;-62
2022/06/07 04:47:06;;;;;;;;;;;11.50;99.90;;;;;;5119831;28;19930;-62
2022/06/07 04:49:31;;;;;;;;;;;11.50;99.90;;;;;;5122499;27;19981;-62
2022/06/07 04:51:57;;;;;;;;;;;11.50;99.90;;;;;;5127605;28;20411;-61
2022/06/07 04:54:23;;;;;;;;;;;11.60;99.90;;;;;;5136914;27;19977;-61
2022/06/07 04:56:48;;;;;;;;;;;11.50;99.90;;;;;;5118584;28;19931;-61
2022/06/07 04:59:14;;;;;;;;;;;11.60;99.90;;;;;;5126301;27;19940;-61
2022/06/07 05:01:42;;;;;;;;;;;11.70;99.90;;;;;;5116520;28;19928;-61
2022/06/07 05:04:09;;;;;;;;;;;11.10;99.90;;;;;;5115808;28;20297;-61
2022/06/07 05:06:39;;;;;;;;;;;11.70;99.90;;;;;;5127982;28;19924;-61
2022/06/07 05:09:17;;;;;;;;;;;11.70;99.90;;;;;;5126611;28;19994;-61
2022/06/07 05:11:47;;;;;;;;;;;11.70;99.90;;;;;;5129226;28;20404;-61
2022/06/07 05:14:12;;;;;;;;;;;11.70;99.90;;;;;;5129220;28;19924;-61
2022/06/07 05:16:39;;;;;;;;;;;11.80;99.90;;;;;;5114714;28;19978;-62
2022/06/07 05:19:06;;;;;;;;;;;11.70;99.90;;;;;;5128400;28;20290;-61
2022/06/07 05:21:31;;;;;;;;;;;11.80;99.90;;;;;;5128983;28;19924;-62
2022/06/07 05:23:57;;;;;;;;;;;11.80;99.90;;;;;;5128088;28;19934;-62
2022/06/07 05:26:23;;;;;;;;;;;11.90;99.90;;;;;;5127687;28;19924;-61
2022/06/07 05:28:49;;;;;;;;;;;11.90;99.90;;;;;;5126237;27;20463;-62
2022/06/07 05:31:15;;;;;;;;;;;12.00;99.90;;;;;;5128679;28;19963;-62
2022/06/07 05:33:40;;;;;;;;;;;12.00;99.90;;;;;;5121573;28;19978;-62
2022/06/07 05:36:06;;;;;;;;;;;12.00;99.90;;;;;;5128413;28;19931;-62
2022/06/07 05:38:32;;;;;;;;;;;12.00;99.90;;;;;;5134049;27;20068;-62
2022/06/07 05:40:57;;;;;;;;;;;12.20;99.90;;;;;;5128392;28;19963;-61
2022/06/07 05:43:23;;;;;;;;;;;12.00;99.90;;;;;;5127934;28;19923;-63
2022/06/07 05:45:50;;;;;;;;;;;12.10;99.90;;;;;;5161569;27;19930;-63
2022/06/07 05:48:15;;;;;;;;;;;12.10;99.90;;;;;;5130118;27;19930;-62
2022/06/07 05:50:44;;;;;;;;;;;11.90;99.90;;;;;;5129078;27;19924;-62
2022/06/07 05:53:11;;;;;;;;;;;11.90;99.90;;;;;;5128325;28;19924;-62
2022/06/07 05:55:37;;;;;;;;;;;11.90;99.90;;;;;;5128162;28;19969;-62
2022/06/07 05:58:02;;;;;;;;;;;11.60;99.90;;;;;;5127865;28;19924;-62
2022/06/07 06:00:31;;;;;;;;;;;11.60;99.90;;;;;;5134936;27;19955;-62
2022/06/07 06:02:57;;;;;;;;;;;11.50;99.90;;;;;;5128540;27;19938;-63
2022/06/07 06:05:23;;;;;;;;;;;11.60;99.90;;;;;;5125460;27;19928;-62
2022/06/07 06:10:33;;;;;;;;;;;11.50;99.90;;;;;;5119995;28;19924;-62
2022/06/07 06:12:58;;;;;;;;;;;11.40;99.90;;;;;;5127482;28;19930;-63
2022/06/07 06:15:24;;;;;;;;;;;11.40;99.90;;;;;;5127814;27;19924;-64
2022/06/07 06:17:49;;;;;;;;;;;11.30;99.90;;;;;;5126244;28;19919;-63
2022/06/07 06:20:15;;;;;;;;;;;11.40;99.90;;;;;;5139330;27;20366;-63
2022/06/07 06:22:41;;;;;;;;;;;11.30;99.90;;;;;;5136140;27;20267;-63
2022/06/07 06:25:07;;;;;;;;;;;11.30;99.90;;;;;;5126142;27;19920;-62
2022/06/07 06:27:32;;;;;;;;;;;11.30;99.90;;;;;;5127188;27;19928;-62
2022/06/07 06:29:58;;;;;;;;;;;11.30;99.90;;;;;;5126866;28;20119;-62
2022/06/07 06:32:24;;;;;;;;;;;11.30;99.90;;;;;;5126842;27;19931;-62
2022/06/07 06:34:50;;;;;;;;;;;11.30;99.90;;;;;;5134874;27;19928;-62
2022/06/07 06:37:15;;;;;;;;;;;11.30;99.90;;;;;;5127202;28;19919;-62
2022/06/07 06:39:41;;;;;;;;;;;11.30;99.90;;;;;;5159287;27;19970;-62
2022/06/07 06:42:07;;;;;;;;;;;;;;;;;;5128647;27;19923;-62
2022/06/07 06:44:33;;;;;;;;;;;;;;;;;;5126928;28;19919;-62
2022/06/07 06:47:01;;;;;;;;;;;;;;;;;;5127201;28;19963;-62
2022/06/07 06:49:27;;;;;;;;;;;;;;;;;;5112463;28;19923;-62
2022/06/07 06:51:53;;;;;;;;;;;;;;;;;;5130635;27;20010;-62
2022/06/07 06:54:19;;;;;;;;;;;;;;;;;;5127110;28;20313;-62
2022/06/07 06:56:46;;;;;;;;;;;;;;;;;;5126804;28;19923;-62
2022/06/07 06:59:12;;;;;;;;;;;;;;;;;;5127034;28;19924;-62
2022/06/07 07:01:38;;;;;;;;;;;;;;;;;;5124958;27;19942;-62
2022/06/07 07:04:04;;;;;;;;;;;;;;;;;;5125791;27;19991;-62
2022/06/07 07:06:30;;;;;;;;;;;;;;;;;;5125499;28;19924;-62
2022/06/07 07:08:56;;;;;;;;;;;;;;;;;;5126656;28;19977;-62
2022/06/07 07:11:22;;;;;;;;;;;;;;;;;;5124304;28;19924;-62
2022/06/07 07:13:48;;;;;;;;;;;;;;;;;;5131720;27;19928;-62
2022/06/07 07:16:14;;;;;;;;;;;;;;;;;;5125471;28;19932;-62
2022/06/07 07:18:40;;;;;;;;;;;;;;;;;;5126501;28;20006;-62
2022/06/07 07:21:06;;;;;;;;;;;;;;;;;;5126047;28;19924;-62
2022/06/07 07:23:32;;;;;;;;;;;;;;;;;;5123356;28;19954;-62
2022/06/07 07:25:58;;;;;;;;;;;;;;;;;;5126058;28;19972;-62
2022/06/07 07:28:24;;;;;;;;;;;;;;;;;;5125499;28;19963;-62
2022/06/07 07:30:50;;;;;;;;;;;;;;;;;;5114436;28;19928;-62
2022/06/07 07:33:16;;;;;;;;;;;;;;;;;;5134009;27;20271;-62
2022/06/07 07:35:42;;;;;;;;;;;;;;;;;;5127424;27;19986;-62
2022/06/07 07:38:08;;;;;;;;;;;;;;;;;;5126321;28;20414;-61
2022/06/07 07:40:34;;;;;;;;;;;;;;;;;;5125444;28;20034;-62
2022/06/07 07:43:00;;;;;;;;;;;;;;;;;;5122175;28;19926;-62
2022/06/07 07:45:26;;;;;;;;;;;;;;;;;;5125785;28;20512;-61
2022/06/07 07:47:52;;;;;;;;;;;;;;;;;;5126019;28;19928;-62
2022/06/07 07:50:18;;;;;;;;;;;;;;;;;;5124682;28;19935;-62
2022/06/07 07:52:44;;;;;;;;;;;;;;;;;;5129289;27;20087;-61
2022/06/07 07:55:11;;;;;;;;;;;;;;;;;;5135023;27;19924;-61
2022/06/07 07:57:37;;;;;;;;;;;;;;;;;;5124619;28;19924;-61
2022/06/07 08:00:03;;;;;;;;;;;;;;;;;;5127008;27;19979;-62
2022/06/07 08:02:29;;;;;;;;;;;;;;;;;;5125533;28;19927;-62
2022/06/07 08:04:55;;;;;;;;;;;;;;;;;;5125912;28;19944;-62
2022/06/07 08:07:21;;;;;;;;;;;;;;;;;;5125710;28;19969;-62
2022/06/07 08:09:47;;;;;;;;;;;;;;;;;;5130492;27;19924;-62
2022/06/07 08:12:13;;;;;;;;;;;;;;;;;;5120312;28;19928;-62
2022/06/07 08:14:38;;;;;;;;;;;;;;;;;;5124165;28;19927;-62
2022/06/07 08:17:04;;;;;;;;;;;;;;;;;;5124746;28;19928;-62
2022/06/07 08:19:30;;;;;;;;;;;;;;;;;;5129795;27;19937;-61
2022/06/07 08:21:56;;;;;;;;;;;;;;;;;;5131739;27;19927;-62
2022/06/07 08:24:22;;;;;;;;;;;;;;;;;;5125602;28;19935;-62
2022/06/07 08:26:49;;;;;;;;;;;;;;;;;;5124026;28;19928;-62
2022/06/07 08:29:15;;;;;;;;;;;;;;;;;;5126451;28;19931;-61
2022/06/07 08:31:41;;;;;;;;;;;;;;;;;;5158067;27;20467;-62
2022/06/07 08:39:36;;;;;;;;;;;;;;;;;;5125111;28;19924;-61
2022/06/07 08:42:02;;;;;;;;;;;;;;;;;;5156170;27;19923;-62
2022/06/07 08:44:28;;;;;;;;;;;;;;;;;;5123633;28;19927;-61
2022/06/07 08:46:54;;;;;;;;;;;;;;;;;;5124902;28;19955;-61
2022/06/07 08:49:20;;;;;;;;;;;;;;;;;;5124744;28;19930;-62
2022/06/07 08:51:46;;;;;;;;;;;;;;;;;;5123390;28;19938;-62
2022/06/07 08:54:13;;;;;;;;;;;;;;;;;;5127590;27;19924;-61
2022/06/07 08:56:39;;;;;;;;;;;;;;;;;;5137049;28;19945;-62
2022/06/07 08:59:06;;;;;;;;;;;;;;;;;;5123484;28;19920;-61
2022/06/07 09:01:32;;;;;;;;;;;;;;;;;;5133656;28;20064;-61
2022/06/07 09:03:59;;;;;;;;;;;;;;;;;;5133339;28;19939;-61
2022/06/07 09:06:25;;;;;;;;;;;;;;;;;;5125317;27;19920;-61
2022/06/07 09:08:51;;;;;;;;;;;;;;;;;;5133610;28;20336;-61
2022/06/07 09:14:04;;;;;;;;;;;;;;;;;;5141612;27;19924;-61
2022/06/07 09:16:30;;;;;;;;;;;;;;;;;;5122058;28;20252;-61
2022/06/07 09:18:56;;;;;;;;;;;;;;;;;;5121999;27;19928;-61
2022/06/07 09:21:23;;;;;;;;;;;;;;;;;;5126152;27;19932;-61
2022/06/07 09:23:49;;;;;;;;;;;;;;;;;;5135851;27;19924;-61
2022/06/07 09:26:15;;;;;;;;;;;;;;;;;;5129181;27;19963;-61
2022/06/07 09:28:41;;;;;;;;;;;;;;;;;;5123495;27;19923;-61
2022/06/07 09:31:07;;;;;;;;;;;;;;;;;;5116763;27;20026;-61
2022/06/07 09:33:33;;;;;;;;;;;;;;;;;;5124994;27;19924;-61
2022/06/07 09:35:59;;;;;;;;;;;;;;;;;;5138447;27;20015;-61
2022/06/07 09:38:25;;;;;;;;;;;;;;;;;;5121723;27;19924;-61
2022/06/07 09:40:51;;;;;;;;;;;;;;;;;;5119735;27;19938;-61
2022/06/07 09:43:17;;;;;;;;;;;;;;;;;;5122209;27;19924;-62
2022/06/07 09:45:43;;;;;;;;;;;;;;;;;;5128628;27;20023;-62
2022/06/07 09:48:09;;;;;;;;;;;;;;;;;;5128288;27;20390;-64
2022/06/07 09:50:37;;;;;;;;;;;;;;;;;;5123891;27;19924;-65
2022/06/07 09:53:03;;;;;;;;;;;;;;;;;;5134979;27;19923;-60
2022/06/07 09:55:29;;;;;;;;;;;;;;;;;;5141800;27;19931;-62
2022/06/07 09:57:55;;;;;;;;;;;;;;;;;;5138895;27;19932;-61
2022/06/07 10:00:21;;;;;;;;;;;;;;;;;;5125897;27;19938;-62
2022/06/07 10:02:47;;;;;;;;;;;;;;;;;;5129305;27;19930;-62
2022/06/07 10:05:13;;;;;;;;;;;;;;;;;;5139075;27;19924;-63
2022/06/07 10:07:39;;;;;;;;;;;;;;;;;;5137154;27;20002;-64
2022/06/07 10:10:05;;;;;;;;;;;;;;;;;;5125817;27;19931;-64
2022/06/07 10:12:31;;;;;;;;;;;;;;;;;;5138082;27;20040;-65
2022/06/07 10:14:57;;;;;;;;;;;;;;;;;;5131111;27;19928;-61
2022/06/07 10:17:23;;;;;;;;;;;;;;;;;;5137074;27;19924;-61
2022/06/07 10:19:49;;;;;;;;;;;;;;;;;;5134799;27;19923;-64
2022/06/07 10:22:15;;;;;;;;;;;;;;;;;;5136487;27;19963;-62
2022/06/07 10:24:42;;;;;;;;;;;;;;;;;;5139344;27;19930;-64
2022/06/07 10:27:08;;;;;;;;;;;;;;;;;;5131620;27;19927;-63
2022/06/07 10:29:34;;;;;;;;;;;;;;;;;;5137137;27;19934;-63
2022/06/07 10:32:00;;;;;;;;;;;;;;;;;;5135214;27;19924;-62
2022/06/07 10:34:26;;;;;;;;;;;;;;;;;;5134982;27;19923;-64
2022/06/07 10:36:51;;;;;;;;;;;;;;;;;;5139570;27;19923;-62
2022/06/07 10:39:20;;;;;;;;;;;;;;;;;;5133820;27;19931;-62
2022/06/07 10:41:46;;;;;;;;;;;;;;;;;;5138974;27;19920;-62
2022/06/07 10:44:12;;;;;;;;;;;;;;;;;;5135226;27;19946;-61
2022/06/07 10:46:37;;;;;;;;;;;;;;;;;;5139747;27;19974;-70
2022/06/07 10:49:03;;;;;;;;;;;;;;;;;;5130002;27;19927;-64
2022/06/07 10:54:16;;;;;;;;;;;;;;;;;;5128410;27;20144;-66
2022/06/07 10:56:42;;;;;;;;;;;;;;;;;;5133080;27;19923;-63
2022/06/07 10:59:08;;;;;;;;;;;;;;;;;;5132457;27;19963;-63
2022/06/07 11:01:35;;;;;;;;;;;;;;;;;;5130180;27;19954;-66
2022/06/07 11:04:01;;;;;;;;;;;;;;;;;;5133154;27;20024;-65
2022/06/07 11:09:21;;;;;;;;;;;;;;;;;;5121919;27;20337;-64
2022/06/07 11:11:47;;;;;;;;;;;;;;;;;;5113789;27;19924;-65
2022/06/07 11:14:13;;;;;;;;;;;;;;;;;;5120993;27;20402;-65
2022/06/07 11:16:39;;;;;;;;;;;;;;;;;;5125887;27;20024;-64
2022/06/07 11:19:05;;;;;;;;;;;;;;;;;;5126083;27;19923;-63
2022/06/07 11:21:31;;;;;;;;;;;;;;;;;;5118209;27;20409;-64
2022/06/07 11:23:57;;;;;;;;;;;;;;;;;;5125389;27;19924;-65
2022/06/07 11:26:24;;;;;;;;;;;;;;;;;;5119122;27;20027;-66
2022/06/07 11:28:50;;;;;;;;;;;;;;;;;;5128163;27;19930;-69
2022/06/07 11:31:16;;;;;;;;;;;;;;;;;;5115769;27;20002;-69
2022/06/07 11:33:43;;;;;;;;;;;;;;;;;;5121781;27;19931;-70
2022/06/07 11:36:09;;;;;;;;;;;;;;;;;;5123812;27;19923;-71
2022/06/07 11:38:35;;;;;;;;;;;;;;;;;;5123001;27;19924;-72
2022/06/07 11:41:47;;;;;;;;;;;;;;;;;;5122062;27;19979;-69
2022/06/07 11:43:47;;;;;;;;;;;;;;;;;;5113614;27;20002;-68
2022/06/07 11:46:13;;;;;;;;;;;;;;;;;;5127322;27;19924;-69
2022/06/07 11:48:39;;;;;;;;;;;;;;;;;;5119067;28;19924;-70
2022/06/07 11:51:05;;;;;;;;;;;;;;;;;;5116782;27;19931;-70
2022/06/07 11:53:31;;;;;;;;;;;;;;;;;;5130046;27;20386;-70
2022/06/07 11:55:57;;;;;;;;;;;;;;;;;;5137833;27;19924;-70
2022/06/07 11:58:23;;;;;;;;;;;;;;;;;;5130357;27;19923;-70
2022/06/07 12:00:49;;;;;;;;;;;;;;;;;;5135670;27;19924;-70
2022/06/07 12:03:16;;;;;;;;;;;;;;;;;;5126262;27;19924;-70
2022/06/07 12:05:42;;;;;;;;;;;;;;;;;;5115571;28;20356;-63
2022/06/07 12:08:09;;;;;;;;;;;;;;;;;;5130423;27;20409;-64
2022/06/07 12:10:35;;;;;;;;;;;;;;;;;;5135088;27;19945;-65
2022/06/07 12:13:01;;;;;;;;;;;;;;;;;;5117731;28;19970;-64
2022/06/07 12:15:27;;;;;;;;;;;;;;;;;;5121836;28;19931;-65
2022/06/07 12:17:53;;;;;;;;;;;;;;;;;;5121025;27;20387;-63
2022/06/07 12:20:19;;;;;;;;;;;;;;;;;;5125291;28;19923;-62
2022/06/07 12:22:45;;;;;;;;;;;;;;;;;;5117553;27;20014;-65
2022/06/07 12:25:11;;;;;;;;;;;;;;;;;;5119787;28;19939;-65
2022/06/07 12:27:37;;;;;;;;;;;;;;;;;;5112615;28;19920;-64
2022/06/07 12:30:04;;;;;;;;;;;;;;;;;;5125082;28;19927;-66
2022/06/07 12:32:31;;;;;;;;;;;;;;;;;;5123557;28;19934;-72
2022/06/07 12:34:57;;;;;;;;;;;;;;;;;;5122934;28;19968;-66
2022/06/07 12:37:25;;;;;;;;;;;;;;;;;;5121750;28;20010;-66
2022/06/07 12:39:51;;;;;;;;;;;;;;;;;;5125709;28;19932;-66
2022/06/07 12:42:17;;;;;;;;;;;;;;;;;;5125418;28;19928;-67
2022/06/07 12:44:43;;;;;;;;;;;;;;;;;;5125908;28;19930;-66
2022/06/07 12:47:09;;;;;;;;;;;;;;;;;;5125349;28;20294;-66
2022/06/07 12:49:35;;;;;;;;;;;;;;;;;;5134487;28;19954;-66
2022/06/07 12:52:01;;;;;;;;;;;;;;;;;;5134746;28;19927;-66
2022/06/07 12:54:28;;;;;;;;;;;;;;;;;;5128632;27;20387;-66
2022/06/07 12:56:54;;;;;;;;;;;;;;;;;;5129540;28;19924;-66
2022/06/07 12:59:21;;;;;;;;;;;;;;;;;;5129385;28;19931;-66
2022/06/07 13:01:48;;;;;;;;;;;;;;;;;;5135513;27;19923;-66
2022/06/07 13:04:14;;;;;;;;;;;;;;;;;;5132944;27;19924;-67
2022/06/07 13:06:40;;;;;;;;;;;;;;;;;;5129229;28;19931;-67
2022/06/07 13:09:06;;;;;;;;;;;;;;;;;;5128215;28;19987;-67
2022/06/07 13:11:32;;;;;;;;;;;;;;;;;;5128250;27;20291;-66
2022/06/07 13:14:00;;;;;;;;;;;;;;;;;;5134953;27;19927;-66
2022/06/07 13:16:26;;;;;;;;;;;;;;;;;;5129603;27;19923;-66
2022/06/07 13:18:52;;;;;;;;;;;;;;;;;;5129257;28;19920;-66
2022/06/07 13:21:18;;;;;;;;;;;;;;;;;;5129148;28;19935;-67
2022/06/07 13:23:44;;;;;;;;;;;;;;;;;;5132753;27;19945;-67
2022/06/07 13:26:10;;;;;;;;;;;;;;;;;;5134632;27;19983;-66
2022/06/07 13:28:36;;;;;;;;;;;;;;;;;;5129017;28;19963;-66
2022/06/07 13:31:02;;;;;;;;;;;;;;;;;;5127521;28;19923;-66
2022/06/07 13:33:28;;;;;;;;;;;;;;;;;;5137364;27;20207;-66
2022/06/07 13:35:57;;;;;;;;;;;;;;;;;;5128849;28;19938;-67
2022/06/07 13:38:23;;;;;;;;;;;;;;;;;;5128797;28;19924;-66
2022/06/07 13:40:49;;;;;;;;;;;;;;;;;;5128708;28;19995;-66
2022/06/07 13:43:15;;;;;;;;;;;;;;;;;;5128898;27;19969;-66
2022/06/07 13:45:41;;;;;;;;;;;;;;;;;;5130240;27;19931;-66
2022/06/07 13:48:07;;;;;;;;;;;;;;;;;;5129423;27;19923;-66
2022/06/07 13:55:50;;;;;;;;;;;;;;;;;;5128257;28;19924;-66
2022/06/07 13:58:16;;;;;;;;;;;;;;;;;;5130261;27;19969;-66
2022/06/07 14:00:42;;;;;;;;;;;;;;;;;;5127076;28;19924;-66
2022/06/07 14:03:09;;;;;;;;;;;;;;;;;;5128134;28;19928;-66
2022/06/07 14:05:35;;;;;;;;;;;;;;;;;;5139355;27;20310;-66
2022/06/07 14:08:01;;;;;;;;;;;;;;;;;;5128643;27;19930;-66
2022/06/07 14:10:27;;;;;;;;;;;;;;;;;;5127334;28;19975;-66
2022/06/07 14:12:56;;;;;;;;;;;;;;;;;;5129923;27;19932;-66
2022/06/07 14:15:22;;;;;;;;;;;;;;;;;;5126059;28;19970;-66
2022/06/07 14:17:48;;;;;;;;;;;;;;;;;;5124827;27;19932;-66
2022/06/07 14:20:14;;;;;;;;;;;;;;;;;;5127754;28;19930;-66
2022/06/07 14:22:40;;;;;;;;;;;;;;;;;;5127737;27;19924;-66
2022/06/07 14:25:06;;;;;;;;;;;;;;;;;;5127591;27;19928;-66
2022/06/07 14:27:32;;;;;;;;;;;;;;;;;;5128146;27;19939;-67
2022/06/07 14:29:58;;;;;;;;;;;;;;;;;;5138862;27;20085;-66
2022/06/07 14:32:24;;;;;;;;;;;;;;;;;;5131553;27;19930;-67
2022/06/07 14:34:50;;;;;;;;;;;;;;;;;;5134363;27;19930;-66
2022/06/07 14:37:16;;;;;;;;;;;;;;;;;;5127553;28;20336;-66
2022/06/07 14:39:42;;;;;;;;;;;;;;;;;;5135847;27;19927;-66
2022/06/07 14:42:08;;;;;;;;;;;;;;;;;;5131687;27;19928;-66
2022/06/07 14:44:34;;;;;;;;;;;;;;;;;;5127511;28;19938;-66
2022/06/07 14:47:00;;;;;;;;;;;;;;;;;;5127204;28;19978;-66
2022/06/07 14:49:26;;;;;;;;;;;;;;;;;;5114108;27;20404;-66
2022/06/07 14:51:56;;;;;;;;;;;;;;;;;;5132257;27;19923;-66
2022/06/07 14:54:22;;;;;;;;;;;;;;;;;;5126545;27;20406;-65
2022/06/07 14:56:50;;;;;;;;;;;;;;;;;;5126092;28;19927;-66
2022/06/07 14:59:16;;;;;;;;;;;;;;;;;;5127067;28;20025;-66
2022/06/07 15:01:42;;;;;;;;;;;;;;;;;;5131377;27;20010;-66
2022/06/07 15:04:08;;;;;;;;;;;;;;;;;;5127209;27;19928;-66
2022/06/07 15:06:34;;;;;;;;;;;;;;;;;;5119944;28;19923;-67
2022/06/07 15:09:00;;;;;;;;;;;;;;;;;;5124523;28;19951;-66
2022/06/07 15:11:25;;;;;;;;;;;;;;;;;;5119648;27;19928;-66
2022/06/07 15:13:51;;;;;;;;;;;;;;;;;;5136145;27;19924;-66
2022/06/07 15:16:17;;;;;;;;;;;;;;;;;;5121029;28;19958;-66
2022/06/07 15:18:45;;;;;;;;;;;;;;;;;;5127021;28;19924;-66
2022/06/07 15:21:11;;;;;;;;;;;;;;;;;;5123565;27;20014;-68
2022/06/07 15:23:37;;;;;;;;;;;;;;;;;;5133695;27;20413;-66
2022/06/07 15:26:03;;;;;;;;;;;;;;;;;;5126570;28;19931;-66
2022/06/07 15:28:29;;;;;;;;;;;;;;;;;;5125459;27;20306;-67
2022/06/07 15:30:55;;;;;;;;;;;;;;;;;;5152228;27;19939;-67
2022/06/07 15:33:20;;;;;;;;;;;;;;;;;;5117000;27;19924;-67
2022/06/07 15:35:46;;;;;;;;;;;;;;;;;;5125895;28;20326;-67
2022/06/07 15:38:12;;;;;;;;;;;;;;;;;;5119051;28;20003;-67
2022/06/07 15:40:38;;;;;;;;;;;;;;;;;;5124216;28;20154;-66
2022/06/07 15:43:04;;;;;;;;;;;;;;;;;;5124879;27;19960;-66
2022/06/07 15:45:32;;;;;;;;;;;;;;;;;;5125067;28;19924;-66
2022/06/07 15:47:59;;;;;;;;;;;;;;;;;;5115645;27;19932;-66
2022/06/07 15:50:25;;;;;;;;;;;;;;;;;;5118207;28;20019;-67
2022/06/07 15:52:51;;;;;;;;;;;;;;;;;;5117868;27;20383;-62
2022/06/07 15:55:17;;;;;;;;;;;;;;;;;;5120073;28;19931;-62
2022/06/07 16:00:27;;;;;;;;;;;;;;;;;;5127989;27;19935;-63
2022/06/07 16:02:53;;;;;;;;;;;;;;;;;;5123470;28;19931;-62
2022/06/07 16:05:19;;;;;;;;;;;;;;;;;;5124496;28;19928;-62
2022/06/07 16:07:45;;;;;;;;;;;;;;;;;;5120781;27;19931;-63
2022/06/07 16:10:11;;;;;;;;;;;;;;;;;;5122094;28;20417;-63
2022/06/07 16:12:38;;;;;;;;;;;;;;;;;;5123068;27;19931;-63
2022/06/07 16:15:04;;;;;;;;;;;;;;;;;;5120856;28;19924;-63
2022/06/07 16:17:30;;;;;;;;;;;;;;;;;;5123340;28;19988;-63
2022/06/07 16:19:58;;;;;;;;;;;;;;;;;;5124198;28;19924;-63
2022/06/07 16:22:24;;;;;;;;;;;;;;;;;;5123268;28;19932;-63
2022/06/07 16:24:50;;;;;;;;;;;;;;;;;;5120277;28;19924;-63
2022/06/07 16:35:29;;;;;;;;;;;;;;;;;;5118319;28;20015;-63
2022/06/07 16:37:55;;;;;;;;;;;;;;;;;;5118138;28;19927;-65
2022/06/07 16:40:21;;;;;;;;;;;;;;;;;;5117332;28;19952;-64
2022/06/07 16:42:47;;;;;;;;;;;;;;;;;;5132216;28;19931;-65
2022/06/07 16:45:14;;;;;;;;;;;;;;;;;;5115182;27;20689;-66
2022/06/07 16:47:40;;;;;;;;;;;;;;;;;;5117782;27;19930;-64
2022/06/07 16:50:07;;;;;;;;;;;;;;;;;;5147741;27;20442;-64